EPWR

Copernicus Wrocław Airport

Wrocław, Poland

EPWR 180830Z 24006KT 200V280 CAVOK 25/17 Q1017

Observed Flight Rules
Aug-18 @ 08:30 UTC (25 minutes ago)
 
Visual Flight Rules
Wind Visibility Clouds
240° at 6 knots 10,000+ meters
  • Clear skies
Temperatures Readings
Current 25°C / 77°F
Dewpoint 17°C / 63°F
Humidity 61%
Altimeter 30.03" Hg
Pressure 1017 hPa
Elevation 121
Observed Flight Rules
Aug-18 @ 08:30 UTC
(25 minutes ago)
 
VFR
Wind Visibility
240° at 6 knots 10,000+ meters
Clouds
  • Clear skies
Temperature Dewpoint
25°C / 77°F 17°C / 63°F
Humidity Altimeter Pressure
61% 30.03" Hg 1017 hPa